sensor_id;sensor_type;location;lat;lon;timestamp;P1;durP1;ratioP1;P2;durP2;ratioP2
8247;SDS011;4164;49.844;8.830;2022-07-06T00:01:46;3.43;;;1.90;;
8247;SDS011;4164;49.844;8.830;2022-07-06T00:04:12;2.37;;;1.83;;
8247;SDS011;4164;49.844;8.830;2022-07-06T00:06:37;2.30;;;1.80;;
8247;SDS011;4164;49.844;8.830;2022-07-06T00:09:03;2.87;;;1.77;;
8247;SDS011;4164;49.844;8.830;2022-07-06T00:11:30;2.33;;;1.97;;
8247;SDS011;4164;49.844;8.830;2022-07-06T00:13:55;3.70;;;1.90;;
8247;SDS011;4164;49.844;8.830;2022-07-06T00:16:21;3.57;;;2.00;;
8247;SDS011;4164;49.844;8.830;2022-07-06T00:18:47;1.93;;;1.83;;
8247;SDS011;4164;49.844;8.830;2022-07-06T00:21:13;2.20;;;1.63;;
8247;SDS011;4164;49.844;8.830;2022-07-06T00:23:38;4.03;;;1.77;;
8247;SDS011;4164;49.844;8.830;2022-07-06T00:26:04;2.10;;;1.60;;
8247;SDS011;4164;49.844;8.830;2022-07-06T00:28:30;3.07;;;1.90;;
8247;SDS011;4164;49.844;8.830;2022-07-06T00:30:56;4.30;;;2.13;;
8247;SDS011;4164;49.844;8.830;2022-07-06T00:33:21;3.67;;;2.10;;
8247;SDS011;4164;49.844;8.830;2022-07-06T00:35:47;3.80;;;1.90;;
8247;SDS011;4164;49.844;8.830;2022-07-06T00:38:13;2.00;;;1.90;;
8247;SDS011;4164;49.844;8.830;2022-07-06T00:40:39;2.60;;;1.90;;
8247;SDS011;4164;49.844;8.830;2022-07-06T00:43:04;2.70;;;1.80;;
8247;SDS011;4164;49.844;8.830;2022-07-06T00:45:30;5.63;;;1.87;;
8247;SDS011;4164;49.844;8.830;2022-07-06T00:47:55;5.37;;;2.13;;
8247;SDS011;4164;49.844;8.830;2022-07-06T00:50:21;3.93;;;2.00;;
8247;SDS011;4164;49.844;8.830;2022-07-06T00:55:25;2.90;;;2.10;;
8247;SDS011;4164;49.844;8.830;2022-07-06T00:57:52;4.03;;;2.03;;
8247;SDS011;4164;49.844;8.830;2022-07-06T01:00:20;5.80;;;2.23;;
8247;SDS011;4164;49.844;8.830;2022-07-06T01:02:46;3.37;;;1.77;;
8247;SDS011;4164;49.844;8.830;2022-07-06T01:05:13;5.57;;;1.87;;
8247;SDS011;4164;49.844;8.830;2022-07-06T01:07:41;5.33;;;2.20;;
8247;SDS011;4164;49.844;8.830;2022-07-06T01:10:09;2.83;;;1.90;;
8247;SDS011;4164;49.844;8.830;2022-07-06T01:12:36;4.43;;;2.10;;
8247;SDS011;4164;49.844;8.830;2022-07-06T01:15:03;1.93;;;1.80;;
8247;SDS011;4164;49.844;8.830;2022-07-06T01:17:30;4.80;;;2.20;;
8247;SDS011;4164;49.844;8.830;2022-07-06T01:19:57;2.40;;;1.97;;
8247;SDS011;4164;49.844;8.830;2022-07-06T01:22:22;3.63;;;2.00;;
8247;SDS011;4164;49.844;8.830;2022-07-06T01:24:48;3.47;;;2.07;;
8247;SDS011;4164;49.844;8.830;2022-07-06T01:27:14;3.47;;;2.10;;
8247;SDS011;4164;49.844;8.830;2022-07-06T01:29:39;4.33;;;2.00;;
8247;SDS011;4164;49.844;8.830;2022-07-06T01:32:05;2.30;;;2.00;;
8247;SDS011;4164;49.844;8.830;2022-07-06T01:34:31;4.57;;;2.07;;
8247;SDS011;4164;49.844;8.830;2022-07-06T01:36:56;4.83;;;1.97;;
8247;SDS011;4164;49.844;8.830;2022-07-06T01:39:22;5.67;;;2.20;;
8247;SDS011;4164;49.844;8.830;2022-07-06T01:41:48;5.60;;;2.20;;
8247;SDS011;4164;49.844;8.830;2022-07-06T01:44:13;4.70;;;2.27;;
8247;SDS011;4164;49.844;8.830;2022-07-06T01:46:39;4.70;;;2.10;;
8247;SDS011;4164;49.844;8.830;2022-07-06T01:49:04;2.67;;;2.00;;
8247;SDS011;4164;49.844;8.830;2022-07-06T01:51:30;2.73;;;1.77;;
8247;SDS011;4164;49.844;8.830;2022-07-06T01:53:56;3.57;;;2.30;;
8247;SDS011;4164;49.844;8.830;2022-07-06T01:56:22;3.47;;;2.03;;
8247;SDS011;4164;49.844;8.830;2022-07-06T01:58:47;7.20;;;2.53;;
8247;SDS011;4164;49.844;8.830;2022-07-06T02:01:15;3.10;;;2.10;;
8247;SDS011;4164;49.844;8.830;2022-07-06T02:03:42;2.93;;;2.10;;
8247;SDS011;4164;49.844;8.830;2022-07-06T02:06:08;7.73;;;1.93;;
8247;SDS011;4164;49.844;8.830;2022-07-06T02:08:34;4.40;;;2.40;;
8247;SDS011;4164;49.844;8.830;2022-07-06T02:11:01;2.87;;;2.53;;
8247;SDS011;4164;49.844;8.830;2022-07-06T02:13:28;4.50;;;2.47;;
8247;SDS011;4164;49.844;8.830;2022-07-06T02:15:53;2.90;;;2.10;;
8247;SDS011;4164;49.844;8.830;2022-07-06T02:18:19;3.73;;;2.60;;
8247;SDS011;4164;49.844;8.830;2022-07-06T02:20:44;5.30;;;2.60;;
8247;SDS011;4164;49.844;8.830;2022-07-06T02:23:10;3.93;;;2.53;;
8247;SDS011;4164;49.844;8.830;2022-07-06T02:25:36;3.33;;;2.20;;
8247;SDS011;4164;49.844;8.830;2022-07-06T02:28:01;4.20;;;2.33;;
8247;SDS011;4164;49.844;8.830;2022-07-06T02:30:27;2.90;;;2.57;;
8247;SDS011;4164;49.844;8.830;2022-07-06T02:32:52;2.40;;;2.20;;
8247;SDS011;4164;49.844;8.830;2022-07-06T02:35:18;5.53;;;2.70;;
8247;SDS011;4164;49.844;8.830;2022-07-06T02:37:46;5.10;;;2.90;;
8247;SDS011;4164;49.844;8.830;2022-07-06T02:40:12;4.47;;;2.80;;
8247;SDS011;4164;49.844;8.830;2022-07-06T02:42:38;4.53;;;2.90;;
8247;SDS011;4164;49.844;8.830;2022-07-06T02:45:04;2.93;;;2.73;;
8247;SDS011;4164;49.844;8.830;2022-07-06T02:47:30;5.50;;;3.20;;
8247;SDS011;4164;49.844;8.830;2022-07-06T02:49:55;3.17;;;2.87;;
8247;SDS011;4164;49.844;8.830;2022-07-06T02:52:21;5.37;;;2.93;;
8247;SDS011;4164;49.844;8.830;2022-07-06T02:54:47;7.67;;;2.90;;
8247;SDS011;4164;49.844;8.830;2022-07-06T02:57:13;3.73;;;2.90;;
8247;SDS011;4164;49.844;8.830;2022-07-06T02:59:39;5.47;;;2.87;;
8247;SDS011;4164;49.844;8.830;2022-07-06T03:02:05;4.53;;;2.60;;
8247;SDS011;4164;49.844;8.830;2022-07-06T03:04:31;4.17;;;2.90;;
8247;SDS011;4164;49.844;8.830;2022-07-06T03:06:57;2.70;;;2.50;;
8247;SDS011;4164;49.844;8.830;2022-07-06T03:09:23;5.37;;;3.20;;
8247;SDS011;4164;49.844;8.830;2022-07-06T03:11:49;6.90;;;3.47;;
8247;SDS011;4164;49.844;8.830;2022-07-06T03:14:14;3.00;;;2.70;;
8247;SDS011;4164;49.844;8.830;2022-07-06T03:16:40;3.37;;;2.97;;
8247;SDS011;4164;49.844;8.830;2022-07-06T03:19:05;3.00;;;2.80;;
8247;SDS011;4164;49.844;8.830;2022-07-06T03:21:31;6.17;;;3.30;;
8247;SDS011;4164;49.844;8.830;2022-07-06T03:23:57;5.13;;;2.93;;
8247;SDS011;4164;49.844;8.830;2022-07-06T03:26:22;4.37;;;3.13;;
8247;SDS011;4164;49.844;8.830;2022-07-06T03:28:48;3.83;;;2.97;;
8247;SDS011;4164;49.844;8.830;2022-07-06T03:31:13;3.20;;;2.70;;
8247;SDS011;4164;49.844;8.830;2022-07-06T03:33:39;5.67;;;2.90;;
8247;SDS011;4164;49.844;8.830;2022-07-06T03:36:04;7.10;;;2.63;;
8247;SDS011;4164;49.844;8.830;2022-07-06T03:38:30;4.10;;;2.90;;
8247;SDS011;4164;49.844;8.830;2022-07-06T03:40:56;9.33;;;2.90;;
8247;SDS011;4164;49.844;8.830;2022-07-06T03:43:21;8.13;;;3.07;;
8247;SDS011;4164;49.844;8.830;2022-07-06T03:45:47;3.80;;;2.50;;
8247;SDS011;4164;49.844;8.830;2022-07-06T03:48:12;4.57;;;2.40;;
8247;SDS011;4164;49.844;8.830;2022-07-06T03:50:38;3.93;;;2.60;;
8247;SDS011;4164;49.844;8.830;2022-07-06T03:53:03;5.47;;;2.80;;
8247;SDS011;4164;49.844;8.830;2022-07-06T03:55:29;4.00;;;2.77;;
8247;SDS011;4164;49.844;8.830;2022-07-06T03:57:54;5.13;;;2.70;;
8247;SDS011;4164;49.844;8.830;2022-07-06T04:00:20;5.20;;;2.77;;
8247;SDS011;4164;49.844;8.830;2022-07-06T04:02:45;7.03;;;3.20;;
8247;SDS011;4164;49.844;8.830;2022-07-06T04:05:11;6.03;;;2.47;;
8247;SDS011;4164;49.844;8.830;2022-07-06T04:07:36;6.23;;;2.23;;
8247;SDS011;4164;49.844;8.830;2022-07-06T04:10:02;3.23;;;2.30;;
8247;SDS011;4164;49.844;8.830;2022-07-06T04:12:28;3.67;;;2.23;;
8247;SDS011;4164;49.844;8.830;2022-07-06T04:14:55;3.97;;;2.33;;
8247;SDS011;4164;49.844;8.830;2022-07-06T04:17:22;6.60;;;2.50;;
8247;SDS011;4164;49.844;8.830;2022-07-06T04:20:07;4.87;;;2.20;;
8247;SDS011;4164;49.844;8.830;2022-07-06T04:22:36;3.70;;;2.90;;
8247;SDS011;4164;49.844;8.830;2022-07-06T04:25:03;6.00;;;2.43;;
8247;SDS011;4164;49.844;8.830;2022-07-06T04:27:28;3.87;;;2.47;;
8247;SDS011;4164;49.844;8.830;2022-07-06T04:29:54;3.63;;;2.33;;
8247;SDS011;4164;49.844;8.830;2022-07-06T04:32:19;6.40;;;2.83;;
8247;SDS011;4164;49.844;8.830;2022-07-06T04:34:45;5.00;;;2.50;;
8247;SDS011;4164;49.844;8.830;2022-07-06T04:37:11;3.87;;;2.33;;
8247;SDS011;4164;49.844;8.830;2022-07-06T04:39:36;7.87;;;2.70;;
8247;SDS011;4164;49.844;8.830;2022-07-06T04:42:02;6.47;;;2.67;;
8247;SDS011;4164;49.844;8.830;2022-07-06T04:44:28;2.40;;;2.13;;
8247;SDS011;4164;49.844;8.830;2022-07-06T04:46:53;3.23;;;2.40;;
8247;SDS011;4164;49.844;8.830;2022-07-06T04:49:19;3.00;;;2.30;;
8247;SDS011;4164;49.844;8.830;2022-07-06T04:51:45;2.60;;;2.13;;
8247;SDS011;4164;49.844;8.830;2022-07-06T04:54:10;3.50;;;2.37;;
8247;SDS011;4164;49.844;8.830;2022-07-06T04:56:36;3.30;;;2.90;;
8247;SDS011;4164;49.844;8.830;2022-07-06T04:59:01;5.67;;;2.70;;
8247;SDS011;4164;49.844;8.830;2022-07-06T05:01:27;6.23;;;2.70;;
8247;SDS011;4164;49.844;8.830;2022-07-06T05:03:52;4.37;;;2.57;;
8247;SDS011;4164;49.844;8.830;2022-07-06T05:06:18;2.50;;;2.00;;
8247;SDS011;4164;49.844;8.830;2022-07-06T05:08:44;2.43;;;2.10;;
8247;SDS011;4164;49.844;8.830;2022-07-06T05:11:10;4.90;;;2.37;;
8247;SDS011;4164;49.844;8.830;2022-07-06T05:13:36;5.57;;;2.30;;
8247;SDS011;4164;49.844;8.830;2022-07-06T05:16:01;4.17;;;2.50;;
8247;SDS011;4164;49.844;8.830;2022-07-06T05:18:27;2.27;;;2.00;;
8247;SDS011;4164;49.844;8.830;2022-07-06T05:20:52;6.70;;;2.43;;
8247;SDS011;4164;49.844;8.830;2022-07-06T05:23:18;2.53;;;1.83;;
8247;SDS011;4164;49.844;8.830;2022-07-06T05:25:44;3.20;;;2.40;;
8247;SDS011;4164;49.844;8.830;2022-07-06T05:28:09;3.70;;;2.20;;
8247;SDS011;4164;49.844;8.830;2022-07-06T05:30:35;5.20;;;2.50;;
8247;SDS011;4164;49.844;8.830;2022-07-06T05:33:00;3.17;;;2.13;;
8247;SDS011;4164;49.844;8.830;2022-07-06T05:35:26;4.47;;;2.40;;
8247;SDS011;4164;49.844;8.830;2022-07-06T05:37:51;6.07;;;2.50;;
8247;SDS011;4164;49.844;8.830;2022-07-06T05:40:17;6.10;;;2.30;;
8247;SDS011;4164;49.844;8.830;2022-07-06T05:42:42;3.67;;;2.47;;
8247;SDS011;4164;49.844;8.830;2022-07-06T05:45:08;5.33;;;2.23;;
8247;SDS011;4164;49.844;8.830;2022-07-06T05:47:34;6.03;;;2.37;;
8247;SDS011;4164;49.844;8.830;2022-07-06T05:50:21;3.70;;;2.20;;
8247;SDS011;4164;49.844;8.830;2022-07-06T05:53:02;3.60;;;2.40;;
8247;SDS011;4164;49.844;8.830;2022-07-06T05:55:29;4.57;;;2.70;;
8247;SDS011;4164;49.844;8.830;2022-07-06T05:57:55;4.80;;;2.13;;
8247;SDS011;4164;49.844;8.830;2022-07-06T06:00:24;4.30;;;2.20;;
8247;SDS011;4164;49.844;8.830;2022-07-06T06:02:51;6.13;;;2.10;;
8247;SDS011;4164;49.844;8.830;2022-07-06T06:05:17;7.77;;;2.50;;
8247;SDS011;4164;49.844;8.830;2022-07-06T06:07:43;8.70;;;2.47;;
8247;SDS011;4164;49.844;8.830;2022-07-06T06:10:12;5.97;;;2.17;;
8247;SDS011;4164;49.844;8.830;2022-07-06T06:12:39;5.67;;;2.37;;
8247;SDS011;4164;49.844;8.830;2022-07-06T06:15:05;3.27;;;2.03;;
8247;SDS011;4164;49.844;8.830;2022-07-06T06:17:32;5.97;;;2.10;;
8247;SDS011;4164;49.844;8.830;2022-07-06T06:19:57;3.90;;;2.40;;
8247;SDS011;4164;49.844;8.830;2022-07-06T06:22:23;6.80;;;2.30;;
8247;SDS011;4164;49.844;8.830;2022-07-06T06:24:49;4.17;;;1.83;;
8247;SDS011;4164;49.844;8.830;2022-07-06T06:27:15;4.73;;;2.23;;
8247;SDS011;4164;49.844;8.830;2022-07-06T06:29:40;5.53;;;1.63;;
8247;SDS011;4164;49.844;8.830;2022-07-06T06:32:07;3.30;;;2.13;;
8247;SDS011;4164;49.844;8.830;2022-07-06T06:34:32;4.00;;;2.00;;
8247;SDS011;4164;49.844;8.830;2022-07-06T06:36:58;2.07;;;1.70;;
8247;SDS011;4164;49.844;8.830;2022-07-06T06:39:24;4.13;;;2.03;;
8247;SDS011;4164;49.844;8.830;2022-07-06T06:41:50;3.43;;;1.80;;
8247;SDS011;4164;49.844;8.830;2022-07-06T06:44:16;4.03;;;1.93;;
8247;SDS011;4164;49.844;8.830;2022-07-06T06:46:42;3.83;;;1.97;;
8247;SDS011;4164;49.844;8.830;2022-07-06T06:49:08;2.57;;;1.90;;
8247;SDS011;4164;49.844;8.830;2022-07-06T06:51:34;3.07;;;1.70;;
8247;SDS011;4164;49.844;8.830;2022-07-06T06:54:00;2.47;;;1.87;;
8247;SDS011;4164;49.844;8.830;2022-07-06T06:56:26;4.67;;;2.00;;
8247;SDS011;4164;49.844;8.830;2022-07-06T06:58:51;3.30;;;1.50;;
8247;SDS011;4164;49.844;8.830;2022-07-06T07:01:17;9.17;;;2.00;;
8247;SDS011;4164;49.844;8.830;2022-07-06T07:03:42;4.60;;;1.83;;
8247;SDS011;4164;49.844;8.830;2022-07-06T07:06:08;3.97;;;1.80;;
8247;SDS011;4164;49.844;8.830;2022-07-06T07:08:33;2.20;;;1.90;;
8247;SDS011;4164;49.844;8.830;2022-07-06T07:10:59;3.47;;;1.87;;
8247;SDS011;4164;49.844;8.830;2022-07-06T07:13:24;3.80;;;1.97;;
8247;SDS011;4164;49.844;8.830;2022-07-06T07:15:50;7.30;;;2.00;;
8247;SDS011;4164;49.844;8.830;2022-07-06T07:18:15;3.77;;;2.00;;
8247;SDS011;4164;49.844;8.830;2022-07-06T07:20:41;3.10;;;1.63;;
8247;SDS011;4164;49.844;8.830;2022-07-06T07:23:06;3.53;;;2.07;;
8247;SDS011;4164;49.844;8.830;2022-07-06T07:25:32;4.07;;;2.30;;
8247;SDS011;4164;49.844;8.830;2022-07-06T07:27:58;4.90;;;2.10;;
8247;SDS011;4164;49.844;8.830;2022-07-06T07:30:23;3.23;;;2.20;;
8247;SDS011;4164;49.844;8.830;2022-07-06T07:32:49;3.97;;;2.43;;
8247;SDS011;4164;49.844;8.830;2022-07-06T07:35:14;6.57;;;2.53;;
8247;SDS011;4164;49.844;8.830;2022-07-06T07:37:40;4.17;;;2.37;;
8247;SDS011;4164;49.844;8.830;2022-07-06T07:40:06;5.60;;;2.57;;
8247;SDS011;4164;49.844;8.830;2022-07-06T07:42:31;3.10;;;2.10;;
8247;SDS011;4164;49.844;8.830;2022-07-06T07:44:57;4.00;;;2.20;;
8247;SDS011;4164;49.844;8.830;2022-07-06T07:47:23;3.00;;;2.27;;
8247;SDS011;4164;49.844;8.830;2022-07-06T07:49:48;3.53;;;2.33;;
8247;SDS011;4164;49.844;8.830;2022-07-06T07:52:14;4.80;;;1.87;;
8247;SDS011;4164;49.844;8.830;2022-07-06T07:54:40;4.03;;;2.40;;
8247;SDS011;4164;49.844;8.830;2022-07-06T07:57:08;2.27;;;2.07;;
8247;SDS011;4164;49.844;8.830;2022-07-06T07:59:35;4.17;;;2.60;;
8247;SDS011;4164;49.844;8.830;2022-07-06T08:02:00;5.47;;;2.60;;
8247;SDS011;4164;49.844;8.830;2022-07-06T08:04:26;8.50;;;3.10;;
8247;SDS011;4164;49.844;8.830;2022-07-06T08:06:51;4.47;;;2.27;;
8247;SDS011;4164;49.844;8.830;2022-07-06T08:09:17;4.23;;;2.40;;
8247;SDS011;4164;49.844;8.830;2022-07-06T08:11:43;5.30;;;2.67;;
8247;SDS011;4164;49.844;8.830;2022-07-06T08:14:09;4.70;;;2.20;;
8247;SDS011;4164;49.844;8.830;2022-07-06T08:16:34;2.60;;;2.33;;
8247;SDS011;4164;49.844;8.830;2022-07-06T08:19:00;5.13;;;2.10;;
8247;SDS011;4164;49.844;8.830;2022-07-06T08:21:26;3.90;;;2.70;;
8247;SDS011;4164;49.844;8.830;2022-07-06T08:23:51;6.63;;;3.70;;
8247;SDS011;4164;49.844;8.830;2022-07-06T08:26:18;3.23;;;2.60;;
8247;SDS011;4164;49.844;8.830;2022-07-06T08:28:44;4.80;;;2.93;;
8247;SDS011;4164;49.844;8.830;2022-07-06T08:31:10;5.70;;;3.13;;
8247;SDS011;4164;49.844;8.830;2022-07-06T08:33:35;5.13;;;2.83;;
8247;SDS011;4164;49.844;8.830;2022-07-06T08:36:01;5.10;;;3.10;;
8247;SDS011;4164;49.844;8.830;2022-07-06T08:38:26;6.87;;;3.20;;
8247;SDS011;4164;49.844;8.830;2022-07-06T08:40:52;4.77;;;2.67;;
8247;SDS011;4164;49.844;8.830;2022-07-06T08:43:19;3.17;;;2.63;;
8247;SDS011;4164;49.844;8.830;2022-07-06T08:45:44;6.40;;;2.83;;
8247;SDS011;4164;49.844;8.830;2022-07-06T08:48:12;6.07;;;2.90;;
8247;SDS011;4164;49.844;8.830;2022-07-06T08:50:38;6.67;;;3.07;;
8247;SDS011;4164;49.844;8.830;2022-07-06T08:53:04;5.07;;;2.60;;
8247;SDS011;4164;49.844;8.830;2022-07-06T08:55:30;3.80;;;2.50;;
8247;SDS011;4164;49.844;8.830;2022-07-06T08:57:57;9.40;;;2.93;;
8247;SDS011;4164;49.844;8.830;2022-07-06T09:00:23;3.73;;;3.00;;
8247;SDS011;4164;49.844;8.830;2022-07-06T09:02:50;8.90;;;2.70;;
8247;SDS011;4164;49.844;8.830;2022-07-06T09:05:18;8.90;;;2.80;;
8247;SDS011;4164;49.844;8.830;2022-07-06T09:07:48;5.70;;;2.27;;
8247;SDS011;4164;49.844;8.830;2022-07-06T09:10:15;4.70;;;2.40;;
8247;SDS011;4164;49.844;8.830;2022-07-06T09:12:43;4.07;;;2.47;;
8247;SDS011;4164;49.844;8.830;2022-07-06T09:15:08;6.13;;;2.77;;
8247;SDS011;4164;49.844;8.830;2022-07-06T09:17:37;6.33;;;2.80;;
8247;SDS011;4164;49.844;8.830;2022-07-06T09:20:04;8.50;;;2.63;;
8247;SDS011;4164;49.844;8.830;2022-07-06T09:22:35;5.50;;;2.70;;
8247;SDS011;4164;49.844;8.830;2022-07-06T09:25:03;7.33;;;2.80;;
8247;SDS011;4164;49.844;8.830;2022-07-06T09:27:29;5.90;;;2.40;;
8247;SDS011;4164;49.844;8.830;2022-07-06T09:29:54;8.00;;;3.23;;
8247;SDS011;4164;49.844;8.830;2022-07-06T09:32:25;7.00;;;3.30;;
8247;SDS011;4164;49.844;8.830;2022-07-06T09:34:50;4.17;;;2.77;;
8247;SDS011;4164;49.844;8.830;2022-07-06T09:37:16;4.93;;;3.23;;
8247;SDS011;4164;49.844;8.830;2022-07-06T09:39:42;7.03;;;3.50;;
8247;SDS011;4164;49.844;8.830;2022-07-06T09:42:09;5.90;;;3.40;;
8247;SDS011;4164;49.844;8.830;2022-07-06T09:44:36;7.73;;;3.53;;
8247;SDS011;4164;49.844;8.830;2022-07-06T09:47:04;12.53;;;3.40;;
8247;SDS011;4164;49.844;8.830;2022-07-06T09:49:34;4.13;;;3.60;;
8247;SDS011;4164;49.844;8.830;2022-07-06T09:52:04;8.37;;;4.00;;
8247;SDS011;4164;49.844;8.830;2022-07-06T09:54:33;7.00;;;3.73;;
8247;SDS011;4164;49.844;8.830;2022-07-06T09:56:59;6.70;;;3.30;;
8247;SDS011;4164;49.844;8.830;2022-07-06T09:59:29;3.70;;;3.20;;
8247;SDS011;4164;49.844;8.830;2022-07-06T10:02:00;3.93;;;3.43;;
8247;SDS011;4164;49.844;8.830;2022-07-06T10:04:28;6.50;;;3.83;;
8247;SDS011;4164;49.844;8.830;2022-07-06T10:06:54;6.10;;;3.90;;
8247;SDS011;4164;49.844;8.830;2022-07-06T10:09:22;3.67;;;3.27;;
8247;SDS011;4164;49.844;8.830;2022-07-06T10:11:53;9.60;;;3.37;;
8247;SDS011;4164;49.844;8.830;2022-07-06T10:14:21;6.53;;;3.23;;
8247;SDS011;4164;49.844;8.830;2022-07-06T10:16:51;7.93;;;3.40;;
8247;SDS011;4164;49.844;8.830;2022-07-06T10:19:18;5.57;;;3.20;;
8247;SDS011;4164;49.844;8.830;2022-07-06T10:21:46;5.40;;;3.43;;
8247;SDS011;4164;49.844;8.830;2022-07-06T10:24:12;5.40;;;3.20;;
8247;SDS011;4164;49.844;8.830;2022-07-06T10:26:38;5.63;;;3.23;;
8247;SDS011;4164;49.844;8.830;2022-07-06T10:29:05;5.80;;;3.50;;
8247;SDS011;4164;49.844;8.830;2022-07-06T10:31:32;4.23;;;3.43;;
8247;SDS011;4164;49.844;8.830;2022-07-06T10:34:00;5.67;;;3.33;;
8247;SDS011;4164;49.844;8.830;2022-07-06T10:36:29;3.87;;;2.77;;
8247;SDS011;4164;49.844;8.830;2022-07-06T10:38:55;7.53;;;3.17;;
8247;SDS011;4164;49.844;8.830;2022-07-06T10:41:31;3.77;;;3.10;;
8247;SDS011;4164;49.844;8.830;2022-07-06T10:46:58;3.07;;;2.47;;
8247;SDS011;4164;49.844;8.830;2022-07-06T10:49:25;3.93;;;2.80;;
8247;SDS011;4164;49.844;8.830;2022-07-06T10:51:53;3.97;;;2.77;;
8247;SDS011;4164;49.844;8.830;2022-07-06T10:54:21;3.67;;;2.80;;
8247;SDS011;4164;49.844;8.830;2022-07-06T10:56:48;4.23;;;2.37;;
8247;SDS011;4164;49.844;8.830;2022-07-06T10:59:16;3.47;;;2.43;;
8247;SDS011;4164;49.844;8.830;2022-07-06T11:02:11;5.27;;;2.80;;
8247;SDS011;4164;49.844;8.830;2022-07-06T11:04:41;6.97;;;2.60;;
8247;SDS011;4164;49.844;8.830;2022-07-06T11:07:09;3.47;;;2.60;;
8247;SDS011;4164;49.844;8.830;2022-07-06T11:09:36;6.87;;;2.77;;
8247;SDS011;4164;49.844;8.830;2022-07-06T11:12:14;3.33;;;2.07;;
8247;SDS011;4164;49.844;8.830;2022-07-06T11:14:43;3.00;;;2.37;;
8247;SDS011;4164;49.844;8.830;2022-07-06T11:17:10;3.03;;;2.57;;
8247;SDS011;4164;49.844;8.830;2022-07-06T11:19:36;3.13;;;2.10;;
8247;SDS011;4164;49.844;8.830;2022-07-06T11:24:33;4.53;;;2.30;;
8247;SDS011;4164;49.844;8.830;2022-07-06T11:26:59;4.43;;;2.27;;
8247;SDS011;4164;49.844;8.830;2022-07-06T11:29:26;4.97;;;2.43;;
8247;SDS011;4164;49.844;8.830;2022-07-06T11:31:54;2.77;;;2.40;;
8247;SDS011;4164;49.844;8.830;2022-07-06T11:34:28;4.97;;;2.70;;
8247;SDS011;4164;49.844;8.830;2022-07-06T11:36:58;5.47;;;2.00;;
8247;SDS011;4164;49.844;8.830;2022-07-06T11:39:29;3.63;;;2.17;;
8247;SDS011;4164;49.844;8.830;2022-07-06T11:41:55;2.63;;;2.00;;
8247;SDS011;4164;49.844;8.830;2022-07-06T11:44:22;3.07;;;1.93;;
8247;SDS011;4164;49.844;8.830;2022-07-06T11:46:48;2.87;;;1.80;;
8247;SDS011;4164;49.844;8.830;2022-07-06T11:49:13;2.30;;;2.00;;
8247;SDS011;4164;49.844;8.830;2022-07-06T11:51:40;4.27;;;2.10;;
8247;SDS011;4164;49.844;8.830;2022-07-06T11:54:08;2.80;;;1.90;;
8247;SDS011;4164;49.844;8.830;2022-07-06T11:56:38;4.03;;;2.10;;
8247;SDS011;4164;49.844;8.830;2022-07-06T11:59:11;4.27;;;2.20;;
8247;SDS011;4164;49.844;8.830;2022-07-06T12:01:37;6.63;;;2.40;;
8247;SDS011;4164;49.844;8.830;2022-07-06T12:04:06;3.73;;;1.90;;
8247;SDS011;4164;49.844;8.830;2022-07-06T12:06:32;4.17;;;1.73;;
8247;SDS011;4164;49.844;8.830;2022-07-06T12:08:59;3.33;;;1.70;;
8247;SDS011;4164;49.844;8.830;2022-07-06T12:11:30;3.07;;;1.80;;
8247;SDS011;4164;49.844;8.830;2022-07-06T12:13:58;2.43;;;1.63;;
8247;SDS011;4164;49.844;8.830;2022-07-06T12:16:34;6.97;;;1.97;;
8247;SDS011;4164;49.844;8.830;2022-07-06T12:19:02;4.17;;;1.77;;
8247;SDS011;4164;49.844;8.830;2022-07-06T12:21:29;2.37;;;1.70;;
8247;SDS011;4164;49.844;8.830;2022-07-06T12:23:55;5.70;;;1.90;;
8247;SDS011;4164;49.844;8.830;2022-07-06T12:26:22;2.43;;;1.77;;
8247;SDS011;4164;49.844;8.830;2022-07-06T12:29:03;2.83;;;1.50;;
8247;SDS011;4164;49.844;8.830;2022-07-06T12:31:38;3.03;;;1.80;;
8247;SDS011;4164;49.844;8.830;2022-07-06T12:34:12;2.90;;;1.60;;
8247;SDS011;4164;49.844;8.830;2022-07-06T12:36:50;2.60;;;1.60;;
8247;SDS011;4164;49.844;8.830;2022-07-06T12:39:20;3.53;;;2.17;;
8247;SDS011;4164;49.844;8.830;2022-07-06T12:42:08;3.23;;;1.77;;
8247;SDS011;4164;49.844;8.830;2022-07-06T12:44:35;4.07;;;1.90;;
8247;SDS011;4164;49.844;8.830;2022-07-06T12:47:08;4.20;;;2.00;;
8247;SDS011;4164;49.844;8.830;2022-07-06T12:49:35;1.90;;;1.80;;
8247;SDS011;4164;49.844;8.830;2022-07-06T12:52:15;2.27;;;1.67;;
8247;SDS011;4164;49.844;8.830;2022-07-06T12:54:42;3.67;;;1.90;;
8247;SDS011;4164;49.844;8.830;2022-07-06T12:57:21;4.00;;;2.17;;
8247;SDS011;4164;49.844;8.830;2022-07-06T13:05:06;4.83;;;2.00;;
8247;SDS011;4164;49.844;8.830;2022-07-06T13:07:35;2.23;;;1.80;;
8247;SDS011;4164;49.844;8.830;2022-07-06T13:10:06;3.07;;;1.77;;
8247;SDS011;4164;49.844;8.830;2022-07-06T13:12:32;2.00;;;1.80;;
8247;SDS011;4164;49.844;8.830;2022-07-06T13:14:59;6.07;;;1.90;;
8247;SDS011;4164;49.844;8.830;2022-07-06T13:17:24;3.73;;;1.90;;
8247;SDS011;4164;49.844;8.830;2022-07-06T13:19:50;2.57;;;1.50;;
8247;SDS011;4164;49.844;8.830;2022-07-06T13:22:15;3.97;;;2.17;;
8247;SDS011;4164;49.844;8.830;2022-07-06T13:24:41;2.40;;;1.73;;
8247;SDS011;4164;49.844;8.830;2022-07-06T13:27:07;3.73;;;1.80;;
8247;SDS011;4164;49.844;8.830;2022-07-06T13:29:33;3.20;;;1.80;;
8247;SDS011;4164;49.844;8.830;2022-07-06T13:31:59;3.23;;;1.50;;
8247;SDS011;4164;49.844;8.830;2022-07-06T13:34:24;2.27;;;1.67;;
8247;SDS011;4164;49.844;8.830;2022-07-06T13:36:50;1.50;;;1.40;;
8247;SDS011;4164;49.844;8.830;2022-07-06T13:39:17;1.80;;;1.53;;
8247;SDS011;4164;49.844;8.830;2022-07-06T13:41:43;2.13;;;1.60;;
8247;SDS011;4164;49.844;8.830;2022-07-06T13:44:09;1.70;;;1.60;;
8247;SDS011;4164;49.844;8.830;2022-07-06T13:46:36;2.70;;;1.53;;
8247;SDS011;4164;49.844;8.830;2022-07-06T13:49:02;2.97;;;1.70;;
8247;SDS011;4164;49.844;8.830;2022-07-06T13:51:29;4.87;;;1.80;;
8247;SDS011;4164;49.844;8.830;2022-07-06T13:53:56;2.93;;;1.60;;
8247;SDS011;4164;49.844;8.830;2022-07-06T13:56:22;6.73;;;1.93;;
8247;SDS011;4164;49.844;8.830;2022-07-06T13:58:48;1.83;;;1.60;;
8247;SDS011;4164;49.844;8.830;2022-07-06T14:01:13;2.13;;;1.40;;
8247;SDS011;4164;49.844;8.830;2022-07-06T14:03:39;1.20;;;1.17;;
8247;SDS011;4164;49.844;8.830;2022-07-06T14:06:05;4.20;;;1.67;;
8247;SDS011;4164;49.844;8.830;2022-07-06T14:08:32;2.77;;;1.57;;
8247;SDS011;4164;49.844;8.830;2022-07-06T14:10:59;4.67;;;1.67;;
8247;SDS011;4164;49.844;8.830;2022-07-06T14:13:25;5.27;;;1.90;;
8247;SDS011;4164;49.844;8.830;2022-07-06T14:15:51;2.53;;;1.40;;
8247;SDS011;4164;49.844;8.830;2022-07-06T14:18:17;2.80;;;1.80;;
8247;SDS011;4164;49.844;8.830;2022-07-06T14:20:44;2.13;;;1.80;;
8247;SDS011;4164;49.844;8.830;2022-07-06T14:23:11;1.60;;;1.50;;
8247;SDS011;4164;49.844;8.830;2022-07-06T14:25:37;3.73;;;1.73;;
8247;SDS011;4164;49.844;8.830;2022-07-06T14:28:04;2.73;;;1.50;;
8247;SDS011;4164;49.844;8.830;2022-07-06T14:30:31;2.13;;;1.40;;
8247;SDS011;4164;49.844;8.830;2022-07-06T14:33:02;5.73;;;1.60;;
8247;SDS011;4164;49.844;8.830;2022-07-06T14:35:32;3.57;;;1.40;;
8247;SDS011;4164;49.844;8.830;2022-07-06T14:38:04;3.50;;;1.70;;
8247;SDS011;4164;49.844;8.830;2022-07-06T14:40:31;4.33;;;1.50;;
8247;SDS011;4164;49.844;8.830;2022-07-06T14:42:57;3.40;;;1.90;;
8247;SDS011;4164;49.844;8.830;2022-07-06T14:45:23;2.43;;;1.50;;
8247;SDS011;4164;49.844;8.830;2022-07-06T14:47:49;5.13;;;1.70;;
8247;SDS011;4164;49.844;8.830;2022-07-06T14:50:15;2.63;;;1.70;;
8247;SDS011;4164;49.844;8.830;2022-07-06T14:52:40;2.80;;;1.40;;
8247;SDS011;4164;49.844;8.830;2022-07-06T14:55:06;2.73;;;1.70;;
8247;SDS011;4164;49.844;8.830;2022-07-06T14:57:32;3.57;;;1.50;;
8247;SDS011;4164;49.844;8.830;2022-07-06T14:59:57;1.60;;;1.50;;
8247;SDS011;4164;49.844;8.830;2022-07-06T15:02:23;3.87;;;1.50;;
8247;SDS011;4164;49.844;8.830;2022-07-06T15:04:48;5.70;;;1.70;;
8247;SDS011;4164;49.844;8.830;2022-07-06T15:07:14;2.30;;;1.60;;
8247;SDS011;4164;49.844;8.830;2022-07-06T15:09:40;5.53;;;1.73;;
8247;SDS011;4164;49.844;8.830;2022-07-06T15:12:06;4.30;;;1.73;;
8247;SDS011;4164;49.844;8.830;2022-07-06T15:14:32;3.80;;;1.77;;
8247;SDS011;4164;49.844;8.830;2022-07-06T15:16:57;1.73;;;1.60;;
8247;SDS011;4164;49.844;8.830;2022-07-06T15:19:23;2.30;;;1.60;;
8247;SDS011;4164;49.844;8.830;2022-07-06T15:21:49;3.63;;;1.73;;
8247;SDS011;4164;49.844;8.830;2022-07-06T15:24:15;2.90;;;1.63;;
8247;SDS011;4164;49.844;8.830;2022-07-06T15:26:40;3.23;;;1.77;;